Time;durP1;ratioP1;P1;durP2;ratioP2;P2;SDS_P1;SDS_P2;PMS_P1;PMS_P2;Temp;Humidity;BMP_temperature;BMP_pressure;BME280_temperature;BME280_humidity;BME280_pressure;Samples;Min_cycle;Max_cycle;Signal;HPM_P1;HPM_P2
2022/05/22 00:00:14;;;;;;;;;;;;;;;14.29;100.00;99102.47;5105921;28;19928;-83
2022/05/22 00:02:41;;;;;;;;;;;;;;;14.36;100.00;99102.22;5073993;28;19929;-83
2022/05/22 00:05:10;;;;;;;;;;;;;;;14.42;100.00;99102.44;5056175;28;19925;-83
2022/05/22 00:07:38;;;;;;;;;;;;;;;14.41;100.00;99106.50;5072694;28;19924;-83
2022/05/22 00:10:05;;;;;;;;;;;;;;;14.21;100.00;99100.25;5056122;28;20390;-83
2022/05/22 00:12:32;;;;;;;;;;;;;;;14.25;100.00;99106.59;5056225;28;19925;-83
2022/05/22 00:15:00;;;;;;;;;;;;;;;14.26;100.00;99096.94;5073665;28;19924;-83
2022/05/22 00:17:27;;;;;;;;;;;;;;;14.37;100.00;99100.22;5106133;28;20015;-83
2022/05/22 00:19:54;;;;;;;;;;;;;;;14.45;100.00;99095.94;5106368;28;19929;-83
2022/05/22 00:22:21;;;;;;;;;;;;;;;14.56;100.00;99093.59;5056196;28;19924;-83
2022/05/22 00:24:52;;;;;;;;;;;;;;;14.65;100.00;99082.44;5089237;28;19925;-83
2022/05/22 00:27:19;;;;;;;;;;;;;;;14.58;100.00;99085.50;5072581;28;19925;-83
2022/05/22 00:29:46;;;;;;;;;;;;;;;14.75;100.00;99072.91;5055909;28;19925;-83
2022/05/22 00:32:14;;;;;;;;;;;;;;;14.56;100.00;99070.28;5055933;28;20055;-83
2022/05/22 00:34:41;;;;;;;;;;;;;;;14.79;100.00;99062.31;5072426;28;19931;-83
2022/05/22 00:37:08;;;;;;;;;;;;;;;14.99;100.00;99060.03;5058287;28;20039;-84
2022/05/22 00:39:35;;;;;;;;;;;;;;;14.76;100.00;99063.22;5060239;28;19929;-84
2022/05/22 00:42:11;;;;;;;;;;;;;;;14.78;100.00;99060.75;5076687;28;19946;-83
2022/05/22 00:44:39;;;;;;;;;;;;;;;14.72;100.00;99061.75;5110048;28;19931;-83
2022/05/22 00:47:06;;;;;;;;;;;;;;;14.91;100.00;99058.69;5076515;28;19931;-84
2022/05/22 00:49:34;;;;;;;;;;;;;;;14.83;100.00;99062.19;5110490;28;20306;-84
2022/05/22 00:52:07;;;;;;;;;;;;;;;15.03;100.00;99057.88;5092915;28;19994;-83
2022/05/22 00:54:54;;;;;;;;;;;;;;;14.90;100.00;99057.13;5076458;28;20326;-83
2022/05/22 00:57:50;;;;;;;;;;;;;;;14.91;100.00;99066.34;5059910;28;19947;-83
2022/05/22 01:00:20;;;;;;;;;;;;;;;14.89;100.00;99063.97;5059476;28;19924;-83
2022/05/22 01:05:41;;;;;;;;;;;;;;;15.04;100.00;99055.84;5110259;28;20031;-83
2022/05/22 01:08:09;;;;;;;;;;;;;;;14.78;100.00;99055.13;5059155;28;20272;-83
2022/05/22 01:10:44;;;;;;;;;;;;;;;14.72;100.00;99056.94;5093237;28;19924;-83
2022/05/22 01:13:13;;;;;;;;;;;;;;;14.72;100.00;99050.50;5092646;28;20295;-82
2022/05/22 01:15:40;;;;;;;;;;;;;;;14.71;100.00;99055.34;5058945;28;20375;-83
2022/05/22 01:18:08;;;;;;;;;;;;;;;14.88;100.00;99056.78;5092476;28;19925;-82
2022/05/22 01:20:36;;;;;;;;;;;;;;;15.01;100.00;99051.16;5076383;28;19930;-82
2022/05/22 01:23:04;;;;;;;;;;;;;;;15.02;100.00;99050.69;5076807;28;20365;-83
2022/05/22 01:25:31;;;;;;;;;;;;;;;14.80;100.00;99047.00;5076144;28;20416;-83
2022/05/22 01:27:59;;;;;;;;;;;;;;;14.88;100.00;99037.09;5092253;28;19924;-83
2022/05/22 01:30:28;;;;;;;;;;;;;;;14.92;100.00;99028.53;5058976;28;20436;-83
2022/05/22 01:33:02;;;;;;;;;;;;;;;15.01;100.00;99028.63;5109697;28;19931;-83
2022/05/22 01:35:29;;;;;;;;;;;;;;;14.93;100.00;99022.47;5108782;28;19924;-83
2022/05/22 01:38:01;;;;;;;;;;;;;;;15.05;100.00;99030.09;5059018;28;20376;-83
2022/05/22 01:40:28;;;;;;;;;;;;;;;15.20;100.00;99019.91;5058767;28;19924;-83
2022/05/22 01:42:55;;;;;;;;;;;;;;;15.30;100.00;99018.72;5042984;28;19974;-83
2022/05/22 01:45:24;;;;;;;;;;;;;;;15.24;100.00;99014.94;5109282;28;19932;-83
2022/05/22 01:47:53;;;;;;;;;;;;;;;15.26;100.00;99011.66;5074868;28;19925;-83
2022/05/22 01:50:29;;;;;;;;;;;;;;;15.35;100.00;99015.34;5076555;28;20364;-83
2022/05/22 01:52:56;;;;;;;;;;;;;;;15.31;100.00;99003.41;5058264;28;19925;-83
2022/05/22 01:55:23;;;;;;;;;;;;;;;15.42;100.00;99015.09;5058927;28;20295;-83
2022/05/22 01:57:50;;;;;;;;;;;;;;;15.39;100.00;98995.50;5074761;28;20406;-83
2022/05/22 02:00:23;;;;;;;;;;;;;;;15.39;100.00;99004.75;5058354;28;19930;-83
2022/05/22 02:02:54;;;;;;;;;;;;;;;15.20;100.00;99000.19;5075258;28;19925;-83
2022/05/22 02:05:31;;;;;;;;;;;;;;;14.98;100.00;99004.97;5075112;28;19935;-83
2022/05/22 02:10:45;;;;;;;;;;;;;;;15.13;100.00;98980.72;5058795;28;19936;-83
2022/05/22 02:13:18;;;;;;;;;;;;;;;14.88;100.00;98989.28;5058092;28;20383;-83
2022/05/22 02:15:46;;;;;;;;;;;;;;;15.19;100.00;98986.59;5091460;28;20410;-83
2022/05/22 02:18:13;;;;;;;;;;;;;;;15.31;100.00;98983.69;5057937;28;19924;-83
2022/05/22 02:20:40;;;;;;;;;;;;;;;14.83;100.00;98977.81;5091485;28;20019;-83
2022/05/22 02:23:07;;;;;;;;;;;;;;;14.77;100.00;98980.41;5057982;28;19947;-83
2022/05/22 02:25:36;;;;;;;;;;;;;;;14.97;100.00;98977.31;5091610;28;19967;-83
2022/05/22 02:28:07;;;;;;;;;;;;;;;15.19;100.00;98981.72;5074748;28;19925;-83
2022/05/22 02:30:38;;;;;;;;;;;;;;;15.27;100.00;98980.25;5058254;28;20279;-83
2022/05/22 02:33:05;;;;;;;;;;;;;;;15.35;100.00;98981.56;5091222;28;19929;-83
2022/05/22 02:35:41;;;;;;;;;;;;;;;14.80;100.00;98973.88;5074731;28;20052;-83
2022/05/22 02:38:14;;;;;;;;;;;;;;;14.09;100.00;98980.22;5057905;28;19964;-83
2022/05/22 02:40:50;;;;;;;;;;;;;;;14.69;100.00;98978.28;5075801;28;19978;-83
2022/05/22 02:43:17;;;;;;;;;;;;;;;14.96;100.00;98968.09;5091278;28;19925;-83
2022/05/22 02:45:51;;;;;;;;;;;;;;;15.07;100.00;98970.53;5074470;28;19924;-83
2022/05/22 02:48:19;;;;;;;;;;;;;;;15.18;100.00;98963.28;5074179;28;20016;-83
2022/05/22 02:51:04;;;;;;;;;;;;;;;14.62;100.00;98967.25;5074240;28;19928;-83
2022/05/22 02:53:32;;;;;;;;;;;;;;;14.72;100.00;98961.31;5107900;28;19931;-83
2022/05/22 02:56:21;;;;;;;;;;;;;;;14.17;100.00;98964.72;5059914;28;19924;-83
2022/05/22 02:59:15;;;;;;;;;;;;;;;14.59;100.00;98954.91;5072863;28;19928;-83
2022/05/22 03:02:02;;;;;;;;;;;;;;;14.90;100.00;98955.06;5059577;28;19924;-83
2022/05/22 03:04:32;;;;;;;;;;;;;;;14.64;100.00;98959.16;5041193;28;19924;-83
2022/05/22 03:07:11;;;;;;;;;;;;;;;14.76;100.00;98952.72;5074007;28;19973;-83
2022/05/22 03:09:40;;;;;;;;;;;;;;;14.84;100.00;98952.06;5057090;28;19924;-83
2022/05/22 03:12:15;;;;;;;;;;;;;;;14.86;100.00;98949.53;5057423;28;19924;-83
2022/05/22 03:14:49;;;;;;;;;;;;;;;14.97;100.00;98943.53;5073233;28;19932;-83
2022/05/22 03:17:17;;;;;;;;;;;;;;;15.02;100.00;98945.78;5073350;28;19931;-83
2022/05/22 03:19:50;;;;;;;;;;;;;;;15.21;100.00;98937.03;5090408;28;20039;-83
2022/05/22 03:22:17;;;;;;;;;;;;;;;14.98;100.00;98937.47;5073472;28;19925;-84
2022/05/22 03:24:44;;;;;;;;;;;;;;;15.04;100.00;98927.19;5090138;28;19925;-83
2022/05/22 03:27:14;;;;;;;;;;;;;;;15.32;100.00;98925.38;5107161;28;20341;-83
2022/05/22 03:29:42;;;;;;;;;;;;;;;15.23;100.00;98920.47;5073826;28;20019;-83
2022/05/22 03:32:11;;;;;;;;;;;;;;;15.04;100.00;98921.56;5056681;28;19924;-83
2022/05/22 03:34:40;;;;;;;;;;;;;;;15.01;100.00;98922.47;5090543;28;19924;-83
2022/05/22 03:37:07;;;;;;;;;;;;;;;15.06;100.00;98921.91;5090008;28;19925;-83
2022/05/22 03:39:34;;;;;;;;;;;;;;;14.97;100.00;98915.41;5090029;28;19932;-83
2022/05/22 03:42:04;;;;;;;;;;;;;;;14.83;100.00;98915.94;5090071;28;19924;-83
2022/05/22 03:44:34;;;;;;;;;;;;;;;14.69;100.00;98910.81;5056887;28;19931;-84
2022/05/22 03:47:02;;;;;;;;;;;;;;;14.52;100.00;98907.38;5072844;28;20286;-84
2022/05/22 03:49:38;;;;;;;;;;;;;;;14.49;100.00;98908.28;5072950;28;19925;-84
2022/05/22 03:52:06;;;;;;;;;;;;;;;14.54;100.00;98909.72;5056387;28;19954;-84
2022/05/22 03:54:34;;;;;;;;;;;;;;;14.34;100.00;98898.75;5089414;28;19924;-83
2022/05/22 03:57:01;;;;;;;;;;;;;;;14.33;100.00;98902.78;5056370;28;19928;-84
2022/05/22 03:59:37;;;;;;;;;;;;;;;14.41;100.00;98887.25;5072808;28;19924;-83
2022/05/22 04:02:04;;;;;;;;;;;;;;;14.44;100.00;98900.41;5073080;28;19939;-83
2022/05/22 04:04:33;;;;;;;;;;;;;;;14.49;100.00;98897.78;5072666;28;19932;-84
2022/05/22 04:07:10;;;;;;;;;;;;;;;14.41;100.00;98896.47;5090908;28;19924;-84
2022/05/22 04:09:37;;;;;;;;;;;;;;;14.42;100.00;98897.25;5039176;28;19924;-83
2022/05/22 04:12:14;;;;;;;;;;;;;;;14.39;100.00;98892.53;5106543;28;19948;-84
2022/05/22 04:14:43;;;;;;;;;;;;;;;14.52;100.00;98887.69;5089326;28;19954;-84
2022/05/22 04:17:12;;;;;;;;;;;;;;;14.49;100.00;98897.78;5072552;28;19931;-84
2022/05/22 04:19:40;;;;;;;;;;;;;;;14.59;100.00;98884.63;5056093;28;19928;-84
2022/05/22 04:22:11;;;;;;;;;;;;;;;14.74;100.00;98884.94;5089349;28;19931;-84
2022/05/22 04:27:28;;;;;;;;;;;;;;;14.57;100.00;98877.88;5055931;28;19932;-84
2022/05/22 04:29:57;;;;;;;;;;;;;;;14.40;100.00;98877.25;5072136;28;19974;-84
2022/05/22 04:32:27;;;;;;;;;;;;;;;14.38;100.00;98876.91;5072520;28;19928;-84
2022/05/22 04:34:57;;;;;;;;;;;;;;;14.18;100.00;98876.38;5072613;28;19928;-83
2022/05/22 04:37:27;;;;;;;;;;;;;;;14.28;100.00;98876.03;5071929;28;19924;-83
2022/05/22 04:39:58;;;;;;;;;;;;;;;14.04;100.00;98871.22;5056021;28;19924;-84
2022/05/22 04:42:25;;;;;;;;;;;;;;;14.02;100.00;98870.88;5089443;28;19931;-83
2022/05/22 04:44:53;;;;;;;;;;;;;;;14.04;100.00;98877.63;5072222;28;19932;-84
2022/05/22 04:47:34;;;;;;;;;;;;;;;14.05;100.00;98875.59;5072264;28;19924;-84
2022/05/22 04:50:20;;;;;;;;;;;;;;;13.92;100.00;98869.19;5089156;28;19925;-84
2022/05/22 04:53:06;;;;;;;;;;;;;;;13.88;100.00;98871.34;5058420;28;19936;-84
2022/05/22 04:55:59;;;;;;;;;;;;;;;14.09;100.00;98879.06;5059101;28;19932;-84
2022/05/22 04:58:31;;;;;;;;;;;;;;;14.22;100.00;98875.00;5071292;28;19928;-84
2022/05/22 05:01:08;;;;;;;;;;;;;;;14.29;100.00;98874.81;5072613;28;20387;-84
2022/05/22 05:03:40;;;;;;;;;;;;;;;14.28;100.00;98876.03;5089045;28;20376;-84
2022/05/22 05:06:08;;;;;;;;;;;;;;;14.42;100.00;98872.75;5072260;28;19924;-84
2022/05/22 05:08:40;;;;;;;;;;;;;;;14.39;100.00;98878.47;5104863;28;19925;-84
2022/05/22 05:11:22;;;;;;;;;;;;;;;14.19;100.00;98877.94;5072308;28;19979;-84
2022/05/22 05:14:06;;;;;;;;;;;;;;;14.13;100.00;98876.94;5071636;28;19943;-84
2022/05/22 05:16:33;;;;;;;;;;;;;;;14.24;100.00;98874.56;5072301;28;19925;-84
2022/05/22 05:19:11;;;;;;;;;;;;;;;14.27;100.00;98884.91;5055500;28;19925;-84
2022/05/22 05:21:42;;;;;;;;;;;;;;;14.27;100.00;98882.09;5106356;28;19924;-84
2022/05/22 05:24:11;;;;;;;;;;;;;;;14.27;100.00;98884.91;5092115;28;19924;-84
2022/05/22 05:26:39;;;;;;;;;;;;;;;14.43;100.00;98881.97;5059036;28;19928;-84
2022/05/22 05:29:13;;;;;;;;;;;;;;;14.33;100.00;98874.66;5074270;28;19931;-85
2022/05/22 05:31:43;;;;;;;;;;;;;;;14.76;100.00;98877.59;5093488;28;20023;-84
2022/05/22 05:34:13;;;;;;;;;;;;;;;14.50;100.00;98881.72;5093041;28;19932;-88
2022/05/22 05:36:49;;;;;;;;;;;;;;;14.45;100.00;98880.28;5074522;28;19924;-84
2022/05/22 05:39:30;;;;;;;;;;;;;;;14.32;100.00;98881.53;5076294;28;20306;-84
2022/05/22 05:42:36;;;;;;;;;;;;;;;14.50;100.00;98876.09;5072106;28;20277;-84
2022/05/22 05:45:05;;;;;;;;;;;;;;;14.54;100.00;98873.94;5092071;28;19971;-84
2022/05/22 05:47:44;;;;;;;;;;;;;;;14.69;100.00;98875.03;5059919;28;19931;-84
2022/05/22 05:50:44;;;;;;;;;;;;;;;14.70;100.00;98873.00;5065776;28;20381;-84
2022/05/22 05:53:25;;;;;;;;;;;;;;;14.54;100.00;98870.38;5077127;28;19925;-84
2022/05/22 05:56:15;;;;;;;;;;;;;;;14.58;100.00;98866.19;5044972;28;19931;-84
2022/05/22 05:59:09;;;;;;;;;;;;;;;14.52;100.00;98856.75;5076353;28;19924;-84
2022/05/22 06:01:46;;;;;;;;;;;;;;;14.64;100.00;98863.56;5091844;28;19931;-84
2022/05/22 06:04:14;;;;;;;;;;;;;;;14.59;100.00;98856.50;5074722;28;20288;-84
2022/05/22 06:06:42;;;;;;;;;;;;;;;14.95;100.00;98851.16;5041756;28;19925;-85
2022/05/22 06:09:09;;;;;;;;;;;;;;;15.01;100.00;98849.34;5075179;28;19956;-84
2022/05/22 06:11:54;;;;;;;;;;;;;;;15.36;100.00;98856.44;5074918;28;20372;-85
2022/05/22 06:14:30;;;;;;;;;;;;;;;15.77;100.00;98855.25;5108321;28;20014;-85
2022/05/22 06:16:58;;;;;;;;;;;;;;;15.89;100.00;98855.16;5091571;28;20007;-85
2022/05/22 06:22:18;;;;;;;;;;;;;;;15.92;100.00;98845.78;5058298;28;19932;-85
2022/05/22 06:24:49;;;;;;;;;;;;;;;15.74;100.00;98850.56;5074454;28;19925;-85
2022/05/22 06:27:34;;;;;;;;;;;;;;;15.83;100.00;98847.78;5088564;28;20376;-85
2022/05/22 06:30:18;;;;;;;;;;;;;;;16.13;100.00;98847.72;5091596;28;20023;-85
2022/05/22 06:33:10;;;;;;;;;;;;;;;16.20;100.00;98850.25;5091178;28;19924;-85
2022/05/22 06:35:56;;;;;;;;;;;;;;;16.14;100.00;98849.31;5074102;28;20503;-85
2022/05/22 06:41:55;;;;;;;;;;;;;;;16.02;100.00;98838.91;5076494;28;19931;-85
2022/05/22 06:45:01;;;;;;;;;;;;;;;15.93;100.00;98838.88;5059704;28;20641;-85
2022/05/22 06:47:40;;;;;;;;;;;;;;;15.86;100.00;98841.22;5044972;28;19967;-84
2022/05/22 06:50:26;;;;;;;;;;;;;;;15.93;100.00;98836.06;5062159;28;19924;-84
2022/05/22 06:53:11;;;;;;;;;;;;;;;15.88;100.00;98830.28;5093342;28;19924;-84
2022/05/22 06:56:02;;;;;;;;;;;;;;;16.06;100.00;98822.66;5062888;28;19924;-80
2022/05/22 06:58:48;;;;;;;;;;;;;;;16.31;100.00;98826.47;5092869;28;19924;-85
2022/05/22 07:01:34;;;;;;;;;;;;;;;16.23;100.00;98823.97;5062242;28;19924;-87
2022/05/22 07:04:24;;;;;;;;;;;;;;;16.36;100.00;98818.16;5016301;28;20080;-86
2022/05/22 07:07:05;;;;;;;;;;;;;;;16.63;100.00;98817.44;5016148;28;19980;-87
2022/05/22 07:09:42;;;;;;;;;;;;;;;16.97;100.00;98817.09;5018032;28;19990;-86
2022/05/22 07:12:33;;;;;;;;;;;;;;;16.96;100.00;98805.03;5005912;28;20020;-88
2022/05/22 07:15:24;;;;;;;;;;;;;;;17.05;100.00;98798.59;5010609;28;20010;-83
2022/05/22 07:18:04;;;;;;;;;;;;;;;17.18;100.00;98799.16;5009971;28;19994;-83
2022/05/22 07:20:46;;;;;;;;;;;;;;;17.13;100.00;98808.28;4969210;28;19926;-83
2022/05/22 07:23:30;;;;;;;;;;;;;;;17.56;100.00;98796.56;4976981;28;19926;-81
2022/05/22 07:26:24;;;;;;;;;;;;;;;17.80;100.00;98791.75;5009456;28;20340;-79
2022/05/22 07:29:20;;;;;;;;;;;;;;;18.10;100.00;98796.28;4980939;28;19926;-81
2022/05/22 07:32:10;;;;;;;;;;;;;;;18.34;100.00;98797.09;4975094;28;19930;-85
2022/05/22 07:35:16;;;;;;;;;;;;;;;18.27;100.00;98788.97;4966483;28;19927;-86
2022/05/22 07:38:02;;;;;;;;;;;;;;;18.24;100.00;98792.75;4955100;29;19937;-85
2022/05/22 07:40:53;;;;;;;;;;;;;;;17.48;100.00;98801.00;4954978;29;19927;-85
2022/05/22 07:43:40;;;;;;;;;;;;;;;17.37;100.00;98793.00;4922933;29;19927;-86
2022/05/22 07:46:30;;;;;;;;;;;;;;;17.35;100.00;98789.09;4895918;29;20025;-86
2022/05/22 07:52:21;;;;;;;;;;;;;;;17.53;100.00;98781.38;4965594;28;19932;-81
2022/05/22 07:55:18;;;;;;;;;;;;;;;17.79;100.00;98788.16;4937922;29;19933;-88
2022/05/22 07:58:03;;;;;;;;;;;;;;;17.75;100.00;98772.66;4954013;29;19933;-89
2022/05/22 08:00:51;;;;;;;;;;;;;;;18.27;100.00;98768.38;4938098;29;19937;-88
2022/05/22 08:03:36;;;;;;;;;;;;;;;17.43;100.00;98764.91;4921862;29;19982;-86
2022/05/22 08:06:05;;;;;;;;;;;;;;;17.71;100.00;98763.53;4953347;29;19926;-80
2022/05/22 08:08:40;;;;;;;;;;;;;;;18.02;100.00;98764.78;4966569;28;19948;-80
2022/05/22 08:11:22;;;;;;;;;;;;;;;17.95;100.00;98753.03;4993713;28;20056;-81
2022/05/22 08:13:56;;;;;;;;;;;;;;;17.72;100.00;98759.47;5012169;28;19925;-81
2022/05/22 08:16:33;;;;;;;;;;;;;;;17.42;100.00;98766.16;5011969;28;19926;-82
2022/05/22 08:19:09;;;;;;;;;;;;;;;17.89;100.00;98763.44;5012092;28;19932;-82
2022/05/22 08:21:48;;;;;;;;;;;;;;;18.28;100.00;98755.81;4993871;28;19929;-81
2022/05/22 08:24:16;;;;;;;;;;;;;;;18.29;100.00;98761.00;4996017;28;19953;-82
2022/05/22 08:26:43;;;;;;;;;;;;;;;18.44;100.00;98761.84;5012387;28;19948;-85
2022/05/22 08:29:13;;;;;;;;;;;;;;;18.34;100.00;98766.00;4996273;28;19984;-84
2022/05/22 08:31:44;;;;;;;;;;;;;;;18.48;100.00;98768.09;5025207;28;19924;-84
2022/05/22 08:34:13;;;;;;;;;;;;;;;18.72;100.00;98765.22;5073662;28;19989;-84
2022/05/22 08:36:40;;;;;;;;;;;;;;;18.96;100.00;98755.38;5039431;28;19960;-82
2022/05/22 08:39:08;;;;;;;;;;;;;;;18.89;100.00;98747.28;5072745;28;19978;-82
2022/05/22 08:41:40;;;;;;;;;;;;;;;18.73;100.00;98744.94;5087021;28;19932;-90
2022/05/22 08:44:26;;;;;;;;;;;;;;;18.93;100.00;98750.69;5053306;28;20387;-88
2022/05/22 08:46:58;;;;;;;;;;;;;;;18.69;100.00;98749.97;5071690;28;20011;-87
2022/05/22 08:49:31;;;;;;;;;;;;;;;18.98;100.00;98738.69;5053148;28;19952;-83
2022/05/22 08:52:09;;;;;;;;;;;;;;;19.15;100.00;98751.09;5070583;28;19928;-84
2022/05/22 08:54:39;;;;;;;;;;;;;;;18.80;100.00;98732.44;5054357;28;19924;-83
2022/05/22 09:00:02;;;;;;;;;;;;;;;19.01;100.00;98745.41;5076377;28;19924;-81
2022/05/22 09:02:34;;;;;;;;;;;;;;;19.08;100.00;98739.38;5077872;28;19932;-82
2022/05/22 09:05:07;;;;;;;;;;;;;;;18.71;100.00;98738.97;5059220;28;19931;-84
2022/05/22 09:07:37;;;;;;;;;;;;;;;18.70;100.00;98740.25;5077304;28;19924;-82
2022/05/22 09:10:07;;;;;;;;;;;;;;;18.51;100.00;98736.00;5076147;28;19932;-87
2022/05/22 09:12:49;;;;;;;;;;;;;;;18.50;100.00;98744.97;5075690;28;20299;-80
2022/05/22 09:15:42;;;;;;;;;;;;;;;18.41;100.00;98731.69;5076722;28;19970;-80
2022/05/22 09:18:18;;;;;;;;;;;;;;;17.67;100.00;98743.97;5075515;28;19925;-80
2022/05/22 09:20:52;;;;;;;;;;;;;;;17.57;100.00;98736.78;5076644;28;19924;-80
2022/05/22 09:23:31;;;;;;;;;;;;;;;17.96;100.00;98734.84;5075597;28;19951;-79
2022/05/22 09:26:10;;;;;;;;;;;;;;;17.69;100.00;98743.47;5075612;28;20513;-78
2022/05/22 09:28:37;;;;;;;;;;;;;;;18.14;100.00;98746.03;5075153;28;19987;-77
2022/05/22 09:31:24;;;;;;;;;;;;;;;18.33;100.00;98738.94;5076091;28;20289;-77
2022/05/22 09:34:11;;;;;;;;;;;;;;;17.96;100.00;98732.78;5075652;28;19993;-77
2022/05/22 09:36:48;;;;;;;;;;;;;;;18.51;100.00;98727.50;5075488;28;20496;-77
2022/05/22 09:39:33;;;;;;;;;;;;;;;18.60;100.00;98713.28;5075709;28;20276;-78
2022/05/22 09:42:18;;;;;;;;;;;;;;;18.66;100.00;98708.50;5075550;28;19928;-78
2022/05/22 09:44:48;;;;;;;;;;;;;;;19.16;100.00;98703.75;5074159;28;19959;-78
2022/05/22 09:47:34;;;;;;;;;;;;;;;19.32;100.00;98698.38;5074304;28;20015;-77
2022/05/22 09:50:41;;;;;;;;;;;;;;;19.41;100.00;98692.59;5057520;28;20364;-76
2022/05/22 09:53:26;;;;;;;;;;;;;;;20.31;100.00;98676.28;5073171;28;19925;-77
2022/05/22 09:55:59;;;;;;;;;;;;;;;20.06;100.00;98662.03;5076172;28;19959;-77
2022/05/22 09:58:37;;;;;;;;;;;;;;;20.62;100.00;98655.72;5079911;28;20557;-75
2022/05/22 10:24:55;;;;;;;;;;;;;;;20.73;100.00;98621.78;4965192;28;19974;-75
2022/05/22 10:27:43;;;;;;;;;;;;;;;20.77;100.00;98599.59;4954330;29;19934;-77
2022/05/22 10:30:18;;;;;;;;;;;;;;;20.97;100.00;98596.72;4954721;28;20033;-77
2022/05/22 10:32:49;;;;;;;;;;;;;;;20.93;100.00;98601.81;4954769;28;20021;-77
2022/05/22 10:35:31;;;;;;;;;;;;;;;21.30;100.00;98591.25;4955135;28;19926;-77
2022/05/22 10:38:43;;;;;;;;;;;;;;;;;;;;;
2022/05/22 10:47:29;;;;;;;;;;;;;;;21.37;100.00;98579.44;5075359;28;19923;-75
2022/05/22 10:49:59;;;;;;;;;;;;;;;21.64;100.00;98578.78;5066121;28;19955;-79
2022/05/22 10:52:31;;;;;;;;;;;;;;;22.33;100.00;98569.47;5075356;28;19924;-77
2022/05/22 10:55:00;;;;;;;;;;;;;;;22.32;100.00;98570.00;5091873;28;19928;-76
2022/05/22 10:57:31;;;;;;;;;;;;;;;22.04;100.00;98564.22;5091819;28;19956;-77
2022/05/22 11:00:16;;;;;;;;;;;;;;;22.08;100.00;98570.47;5075310;28;19931;-78
2022/05/22 11:02:43;;;;;;;;;;;;;;;21.89;100.00;98557.97;5074805;28;20407;-76
2022/05/22 11:05:17;;;;;;;;;;;;;;;21.68;100.00;98565.09;5075286;28;19928;-78
2022/05/22 11:07:46;;;;;;;;;;;;;;;21.78;100.00;98569.31;5075409;28;19924;-74
2022/05/22 11:10:24;;;;;;;;;;;;;;;21.25;100.00;98569.25;5087678;28;20055;-75
2022/05/22 11:13:06;;;;;;;;;;;;;;;20.95;100.00;98560.31;5067224;28;19932;-76
2022/05/22 11:15:37;;;;;;;;;;;;;;;21.59;100.00;98559.63;5083995;28;19928;-76
2022/05/22 11:18:11;;;;;;;;;;;;;;;20.79;100.00;98552.41;5052637;28;19935;-84
2022/05/22 11:20:46;;;;;;;;;;;;;;;20.80;100.00;98561.69;5084558;28;19931;-81
2022/05/22 11:23:40;;;;;;;;;;;;;;;21.25;100.00;98566.41;5037941;28;19929;-78
2022/05/22 11:26:16;;;;;;;;;;;;;;;21.81;100.00;98551.22;5028540;28;19980;-76
2022/05/22 11:28:46;;;;;;;;;;;;;;;21.55;100.00;98555.50;5030062;28;20402;-80
2022/05/22 11:31:16;;;;;;;;;;;;;;;20.25;100.00;98572.56;5029417;28;20353;-77
2022/05/22 11:33:58;;;;;;;;;;;;;;;20.02;100.00;98563.00;5029729;28;19925;-78
2022/05/22 11:36:32;;;;;;;;;;;;;;;20.94;100.00;98553.03;5013572;28;19933;-79
2022/05/22 11:39:09;;;;;;;;;;;;;;;19.65;100.00;98545.84;5031455;28;19932;-78
2022/05/22 11:41:38;;;;;;;;;;;;;;;20.51;100.00;98551.41;5029973;28;19975;-78
2022/05/22 11:44:12;;;;;;;;;;;;;;;20.02;100.00;98542.38;5030780;28;19975;-77
2022/05/22 11:46:49;;;;;;;;;;;;;;;21.20;100.00;98547.28;5029187;28;19929;-78
2022/05/22 11:49:17;;;;;;;;;;;;;;;20.54;100.00;98535.44;5027518;28;19932;-76
2022/05/22 11:55:30;;;;;;;;;;;;;;;21.07;100.00;98542.06;5011148;28;20352;-77
2022/05/22 11:57:57;;;;;;;;;;;;;;;22.00;100.00;98540.94;5012048;28;19932;-78
2022/05/22 12:00:31;;;;;;;;;;;;;;;22.09;100.00;98526.50;5010742;28;20024;-78
2022/05/22 12:03:16;;;;;;;;;;;;;;;21.55;100.00;98521.38;5027311;28;19932;-76
2022/05/22 12:05:43;;;;;;;;;;;;;;;21.99;100.00;98510.19;5027088;28;20436;-76
2022/05/22 12:08:29;;;;;;;;;;;;;;;21.59;100.00;98519.84;5027024;28;19936;-79
2022/05/22 12:11:00;;;;;;;;;;;;;;;21.73;100.00;98509.56;5027015;28;20361;-77
2022/05/22 12:13:49;;;;;;;;;;;;;;;21.60;100.00;98510.03;5026765;28;19967;-76
2022/05/22 12:16:29;;;;;;;;;;;;;;;21.81;100.00;98525.63;5024335;28;19978;-77
2022/05/22 12:19:15;;;;;;;;;;;;;;;21.01;100.00;98518.50;5047217;28;20027;-75
2022/05/22 12:21:48;;;;;;;;;;;;;;;20.27;100.00;98510.41;5047786;28;19932;-75
2022/05/22 12:24:28;;;;;;;;;;;;;;;20.81;100.00;98515.75;5047676;28;20300;-75
2022/05/22 12:26:55;;;;;;;;;;;;;;;20.83;100.00;98506.75;5050181;28;19925;-75
2022/05/22 12:29:27;;;;;;;;;;;;;;;21.05;100.00;98502.00;5049208;28;19990;-75
2022/05/22 12:31:58;;;;;;;;;;;;;;;21.98;100.00;98503.69;5052008;28;20422;-76
2022/05/22 12:34:36;;;;;;;;;;;;;;;22.33;100.00;98494.69;5054052;28;19964;-76
2022/05/22 12:37:05;;;;;;;;;;;;;;;22.41;100.00;98493.69;5056802;28;20006;-76
2022/05/22 12:39:41;;;;;;;;;;;;;;;21.52;100.00;98502.50;5057250;28;20023;-76
2022/05/22 12:42:13;;;;;;;;;;;;;;;21.91;100.00;98492.84;5055936;28;19951;-76
2022/05/22 12:44:40;;;;;;;;;;;;;;;21.17;100.00;98503.63;5056157;28;19948;-75
2022/05/22 12:47:13;;;;;;;;;;;;;;;21.12;100.00;98498.72;5055817;28;20277;-76
2022/05/22 12:49:51;;;;;;;;;;;;;;;21.58;100.00;98487.03;5055905;28;20015;-76
2022/05/22 12:52:28;;;;;;;;;;;;;;;21.30;100.00;98483.28;5057126;28;19924;-76
2022/05/22 12:54:58;;;;;;;;;;;;;;;21.55;100.00;98476.69;5057186;28;20454;-76
2022/05/22 12:57:26;;;;;;;;;;;;;;;21.33;100.00;98473.75;5056854;28;19925;-76
2022/05/22 12:59:56;;;;;;;;;;;;;;;20.68;100.00;98470.00;5056988;28;19925;-76
2022/05/22 13:02:32;;;;;;;;;;;;;;;21.04;100.00;98457.06;5056925;28;19924;-78
2022/05/22 13:05:00;;;;;;;;;;;;;;;20.59;100.00;98458.06;5057304;28;19924;-78
2022/05/22 13:07:36;;;;;;;;;;;;;;;21.61;100.00;98451.91;5056917;28;20470;-78
2022/05/22 13:10:26;;;;;;;;;;;;;;;21.75;100.00;98447.31;5056977;28;20034;-78
2022/05/22 13:12:57;;;;;;;;;;;;;;;20.75;100.00;98451.72;5036029;28;20017;-78
2022/05/22 13:15:25;;;;;;;;;;;;;;;20.51;100.00;98452.06;5061815;28;19978;-78
2022/05/22 13:18:06;;;;;;;;;;;;;;;20.53;100.00;98443.06;5076781;28;20017;-76
2022/05/22 13:20:37;;;;;;;;;;;;;;;21.32;100.00;98446.63;5074946;28;19931;-76
2022/05/22 13:23:08;;;;;;;;;;;;;;;21.66;100.00;98441.84;5076224;28;20280;-74
2022/05/22 13:25:42;;;;;;;;;;;;;;;21.41;100.00;98432.19;5075236;28;19966;-76
2022/05/22 13:28:24;;;;;;;;;;;;;;;21.12;100.00;98433.38;5076593;28;19924;-75
2022/05/22 13:30:54;;;;;;;;;;;;;;;21.37;100.00;98426.00;5076494;28;19932;-76
2022/05/22 13:33:21;;;;;;;;;;;;;;;21.34;100.00;98422.09;5076400;28;19963;-74
2022/05/22 13:35:53;;;;;;;;;;;;;;;21.97;100.00;98421.75;5076319;28;19931;-79
2022/05/22 13:38:20;;;;;;;;;;;;;;;21.87;100.00;98429.72;5058684;28;19925;-78
2022/05/22 13:41:03;;;;;;;;;;;;;;;22.03;100.00;98433.88;5075307;28;20320;-83
2022/05/22 13:43:39;;;;;;;;;;;;;;;22.22;100.00;98421.47;5058217;28;19925;-84
2022/05/22 13:46:18;;;;;;;;;;;;;;;22.46;100.00;98413.19;5075228;28;20035;-81
2022/05/22 13:48:52;;;;;;;;;;;;;;;22.23;100.00;98410.88;5076551;28;19924;-82
2022/05/22 13:54:39;;;;;;;;;;;;;;;21.93;100.00;98385.00;5074883;28;19924;-83
2022/05/22 13:57:15;;;;;;;;;;;;;;;22.27;100.00;98406.47;5042025;28;19924;-82
2022/05/22 14:00:02;;;;;;;;;;;;;;;22.22;100.00;98400.81;5074927;28;20392;-83
2022/05/22 14:03:07;;;;;;;;;;;;;;;22.05;100.00;98395.13;5067990;28;19924;-80
2022/05/22 14:05:42;;;;;;;;;;;;;;;22.19;100.00;98391.22;5033610;28;19924;-81
2022/05/22 14:08:20;;;;;;;;;;;;;;;22.17;100.00;98385.28;5075355;28;19925;-81
2022/05/22 14:10:56;;;;;;;;;;;;;;;22.23;100.00;98380.38;5072885;28;19935;-81
2022/05/22 14:14:24;;;;;;;;;;;;;;;22.50;100.00;98378.78;5091752;27;19963;-81
2022/05/22 14:17:54;;;;;;;;;;;;;;;22.12;100.00;98366.16;5053401;28;19967;-80